| time (UTC) | temp F | wind direction | speed MPH | gust MPH | rain 1hr in | rain 24hr in | rain mn in | humidity % | barometer mb |
| 20260505211124 | 73 | 142 | 1.0 | 8.0 | 0.00 | 0.00 | 0.00 | 38 | 1098.9 |
| 20260505210620 | 75 | 204 | 4.0 | 13.0 | 0.00 | 0.00 | 0.00 | 37 | 1098.9 |
| 20260505210117 | 76 | 132 | 5.0 | 10.0 | 0.00 | 0.00 | 0.00 | 34 | 1099.1 |
| 20260505205615 | 75 | 52 | 6.0 | 11.0 | 0.00 | 0.00 | 0.00 | 36 | 1099.1 |
| 20260505205113 | 77 | 147 | 7.0 | 11.0 | 0.00 | 0.00 | 0.00 | 37 | 1099.1 |
| 20260505204610 | 77 | 136 | 8.0 | 10.0 | 0.00 | 0.00 | 0.00 | 37 | 1099.0 |
| 20260505204107 | 78 | 72 | 3.0 | 8.0 | 0.00 | 0.00 | 0.00 | 33 | 1098.9 |
| 20260505203604 | 79 | 133 | 2.0 | 6.0 | 0.00 | 0.00 | 0.00 | 35 | 1099.0 |
| 20260505203101 | 78 | 147 | 5.0 | 11.0 | 0.00 | 0.00 | 0.00 | 35 | 1099.0 |
| 20260505202556 | 79 | 169 | 2.0 | 6.0 | 0.00 | 0.00 | 0.00 | 36 | 1099.1 |
| 20260505202053 | 77 | 147 | 1.0 | 5.0 | 0.00 | 0.00 | 0.00 | 35 | 1099.1 |
| 20260505201550 | 75 | 124 | 1.0 | 5.0 | 0.00 | 0.00 | 0.00 | 40 | 1098.9 |
| 20260505201048 | 77 | 127 | 3.0 | 13.0 | 0.00 | 0.00 | 0.00 | 38 | 1099.0 |
| 20260505200545 | 77 | 156 | 5.0 | 8.0 | 0.00 | 0.00 | 0.00 | 35 | 1099.1 |
| 20260505200042 | 77 | 131 | 2.0 | 5.0 | 0.00 | 0.00 | 0.00 | 37 | 1099.1 |
| 20260505195538 | 77 | 138 | 1.0 | 9.0 | 0.00 | 0.00 | 0.00 | 36 | 1099.2 |
| 20260505195036 | 77 | 155 | 1.0 | 8.0 | 0.00 | 0.00 | 0.00 | 36 | 1099.6 |
| 20260505194533 | 76 | 22 | 5.0 | 11.0 | 0.00 | 0.00 | 0.00 | 35 | 1099.3 |
| 20260505194028 | 75 | 153 | 5.0 | 11.0 | 0.00 | 0.00 | 0.00 | 36 | 1099.4 |
| 20260505193525 | 75 | 157 | 6.0 | 18.0 | 0.00 | 0.00 | 0.00 | 37 | 1099.3 |
| 20260505193023 | 76 | 156 | 5.0 | 10.0 | 0.00 | 0.00 | 0.00 | 37 | 1099.4 |
| 20260505192521 | 76 | 143 | 7.0 | 11.0 | 0.00 | 0.00 | 0.00 | 37 | 1099.5 |
| 20260505192018 | 77 | 12 | 5.0 | 10.0 | 0.00 | 0.00 | 0.00 | 36 | 1099.7 |
| 20260505191516 | 76 | 222 | 2.0 | 11.0 | 0.00 | 0.00 | 0.00 | 37 | 1099.9 |
| 20260505191014 | 74 | 139 | 2.0 | 5.0 | 0.00 | 0.00 | 0.00 | 37 | 1099.7 |
| 20260505190508 | 74 | 202 | 5.0 | 13.0 | 0.00 | 0.00 | 0.00 | 40 | 1100.1 |
| 20260505190004 | 73 | 149 | 6.0 | 13.0 | 0.00 | 0.00 | 0.00 | 41 | 1099.9 |
| 20260505185502 | 76 | 153 | 7.0 | 10.0 | 0.00 | 0.00 | 0.00 | 37 | 1100.2 |
| 20260505184957 | 74 | 138 | 3.0 | 8.0 | 0.00 | 0.00 | 0.00 | 37 | 1100.3 |
| 20260505184455 | 76 | 141 | 8.0 | 13.0 | 0.00 | 0.00 | 0.00 | 36 | 1100.3 |
| 20260505183951 | 76 | 128 | 8.0 | 11.0 | 0.00 | 0.00 | 0.00 | 39 | 1100.0 |
| 20260505183449 | 77 | 125 | 4.0 | 10.0 | 0.00 | 0.00 | 0.00 | 39 | 1100.0 |
| 20260505182944 | 75 | 289 | 0.0 | 3.0 | 0.00 | 0.00 | 0.00 | 40 | 1100.0 |
| 20260505182442 | 74 | 159 | 2.0 | 5.0 | 0.00 | 0.00 | 0.00 | 41 | 1100.0 |
| 20260505181937 | 75 | 155 | 4.0 | 10.0 | 0.00 | 0.00 | 0.00 | 42 | 1100.2 |
| 20260505181436 | 76 | 145 | 1.0 | 8.0 | 0.00 | 0.00 | 0.00 | 39 | 1100.3 |
| 20260505180932 | 75 | 144 | 5.0 | 10.0 | 0.00 | 0.00 | 0.00 | 40 | 1100.5 |
| 20260505180428 | 74 | 123 | 1.0 | 16.0 | 0.00 | 0.00 | 0.00 | 42 | 1100.3 |
| 20260505175925 | 73 | 117 | 7.0 | 16.0 | 0.00 | 0.00 | 0.00 | 42 | 1100.7 |
| 20260505175422 | 72 | 74 | 0.0 | 11.0 | 0.00 | 0.00 | 0.00 | 40 | 1100.7 |
| 20260505174918 | 73 | 126 | 5.0 | 9.0 | 0.00 | 0.00 | 0.00 | 39 | 1101.0 |
| 20260505174416 | 72 | 127 | 3.0 | 10.0 | 0.00 | 0.00 | 0.00 | 40 | 1100.7 |
| 20260505173912 | 72 | 111 | 8.0 | 13.0 | 0.00 | 0.00 | 0.00 | 40 | 1100.9 |
| 20260505173408 | 71 | 170 | 3.0 | 10.0 | 0.00 | 0.00 | 0.00 | 45 | 1101.1 |
| 20260505172905 | 73 | 135 | 7.0 | 13.0 | 0.00 | 0.00 | 0.00 | 42 | 1101.0 |
| 20260505172403 | 71 | 134 | 6.0 | 11.0 | 0.00 | 0.00 | 0.00 | 42 | 1101.2 |
| 20260505171902 | 70 | 134 | 6.0 | 14.0 | 0.00 | 0.00 | 0.00 | 42 | 1100.8 |
| 20260505171359 | 70 | 213 | 6.0 | 15.0 | 0.00 | 0.00 | 0.00 | 41 | 1101.2 |
| 20260505170856 | 71 | 155 | 5.0 | 16.0 | 0.00 | 0.00 | 0.00 | 41 | 1101.4 |
| 20260505170353 | 72 | 147 | 6.0 | 11.0 | 0.00 | 0.00 | 0.00 | 41 | 1101.5 |
| 20260505165848 | 72 | 170 | 5.0 | 7.0 | 0.00 | 0.00 | 0.00 | 40 | 1101.2 |
| 20260505165344 | 72 | 158 | 3.0 | 11.0 | 0.00 | 0.00 | 0.00 | 42 | 1101.2 |
| 20260505164840 | 71 | 166 | 2.0 | 3.0 | 0.00 | 0.00 | 0.00 | 38 | 1101.1 |
| 20260505164337 | 70 | 120 | 3.0 | 6.0 | 0.00 | 0.00 | 0.00 | 41 | 1101.0 |
| 20260505163835 | 71 | 140 | 3.0 | 9.0 | 0.00 | 0.00 | 0.00 | 42 | 1100.9 |
| 20260505163334 | 69 | 130 | 2.0 | 7.0 | 0.00 | 0.00 | 0.00 | 41 | 1101.1 |
| 20260505162832 | 69 | 160 | 11.0 | 15.0 | 0.00 | 0.00 | 0.00 | 41 | 1100.9 |
| 20260505162327 | 69 | 158 | 7.0 | 14.0 | 0.00 | 0.00 | 0.00 | 42 | 1101.1 |
| 20260505161825 | 69 | 150 | 6.0 | 8.0 | 0.00 | 0.00 | 0.00 | 43 | 1101.2 |
| 20260505161322 | 69 | 141 | 9.0 | 13.0 | 0.00 | 0.00 | 0.00 | 42 | 1101.5 |
| 20260505160819 | 69 | 134 | 11.0 | 15.0 | 0.00 | 0.00 | 0.00 | 42 | 1101.4 |
| 20260505160317 | 68 | 184 | 9.0 | 10.0 | 0.00 | 0.00 | 0.00 | 44 | 1101.7 |
| 20260505153256 | 68 | 161 | 2.0 | 9.0 | 0.00 | 0.00 | 0.00 | 47 | 1101.5 |
| 20260505152753 | 68 | 148 | 7.0 | 11.0 | 0.00 | 0.00 | 0.00 | 46 | 1101.5 |
| 20260505152249 | 65 | 127 | 1.0 | 10.0 | 0.00 | 0.00 | 0.00 | 53 | 1101.5 |
| 20260505151743 | 67 | 157 | 7.0 | 14.0 | 0.00 | 0.00 | 0.00 | 52 | 1101.4 |
| 20260505151241 | 66 | 154 | 3.0 | 13.0 | 0.00 | 0.00 | 0.00 | 53 | 1101.6 |
| 20260505150739 | 67 | 56 | 3.0 | 10.0 | 0.00 | 0.00 | 0.00 | 54 | 1101.7 |
| 20260505150236 | 65 | 152 | 2.0 | 8.0 | 0.00 | 0.00 | 0.00 | 54 | 1101.5 |
| 20260505140206 | 60 | 220 | 1.0 | 3.0 | 0.00 | 0.00 | 0.00 | 60 | 1101.6 |
| 20260505130129 | 61 | 143 | 1.0 | 2.0 | 0.00 | 0.00 | 0.00 | 55 | 1100.6 |
| 20260505124619 | 60 | 136 | 2.0 | 3.0 | 0.00 | 0.00 | 0.00 | 56 | 1100.3 |
| 20260505124115 | 60 | 144 | 1.0 | 2.0 | 0.00 | 0.00 | 0.00 | 57 | 1100.6 |
| 20260505123611 | 59 | 133 | 2.0 | 2.0 | 0.00 | 0.00 | 0.00 | 58 | 1100.6 |
| 20260505123108 | 59 | 142 | 0.0 | 2.0 | 0.00 | 0.00 | 0.00 | 58 | 1100.2 |
| 20260505122605 | 58 | 138 | 2.0 | 2.0 | 0.00 | 0.00 | 0.00 | 59 | 1100.4 |
| 20260505122102 | 59 | 119 | 1.0 | 3.0 | 0.00 | 0.00 | 0.00 | 59 | 1100.4 |
| 20260505121558 | 58 | 51 | 1.0 | 2.0 | 0.00 | 0.00 | 0.00 | 59 | 1100.4 |
| 20260505121055 | 58 | 137 | 1.0 | 2.0 | 0.00 | 0.00 | 0.00 | 59 | 1100.4 |
| 20260505120552 | 57 | 140 | 0.0 | 1.0 | 0.00 | 0.00 | 0.00 | 59 | 1100.4 |
| 20260505120047 | 58 | 138 | 2.0 | 3.0 | 0.00 | 0.00 | 0.00 | 59 | 1100.3 |
| 20260505115542 | 58 | 138 | 2.0 | 3.0 | 0.00 | 0.00 | 0.00 | 60 | 1100.3 |
| 20260505115040 | 57 | 131 | 1.0 | 2.0 | 0.00 | 0.00 | 0.00 | 59 | 1100.4 |
| 20260505114537 | 58 | 139 | 2.0 | 6.0 | 0.00 | 0.00 | 0.00 | 59 | 1100.3 |
| 20260505114033 | 57 | 137 | 2.0 | 3.0 | 0.00 | 0.00 | 0.00 | 59 | 1100.2 |
| 20260505113529 | 58 | 140 | 2.0 | 3.0 | 0.00 | 0.00 | 0.00 | 59 | 1100.1 |
| 20260505113026 | 58 | 139 | 2.0 | 3.0 | 0.00 | 0.00 | 0.00 | 58 | 1100.1 |
| 20260505112523 | 58 | 145 | 2.0 | 5.0 | 0.00 | 0.00 | 0.00 | 58 | 1100.0 |
| 20260505112021 | 58 | 143 | 2.0 | 3.0 | 0.00 | 0.00 | 0.00 | 58 | 1099.9 |
| 20260505111520 | 58 | 144 | 3.0 | 5.0 | 0.00 | 0.00 | 0.00 | 57 | 1099.7 |
| 20260505111016 | 58 | 138 | 2.0 | 3.0 | 0.00 | 0.00 | 0.00 | 56 | 1099.7 |
| 20260505110513 | 58 | 139 | 3.0 | 5.0 | 0.00 | 0.00 | 0.00 | 56 | 1099.7 |
| 20260505101945 | 59 | 69 | 3.0 | 6.0 | 0.00 | 0.00 | 0.00 | 54 | 1099.2 |
| 20260505101444 | 59 | 139 | 2.0 | 2.0 | 0.00 | 0.00 | 0.00 | 55 | 1099.5 |
| 20260505100940 | 59 | 71 | 1.0 | 3.0 | 0.00 | 0.00 | 0.00 | 55 | 1099.4 |
| 20260505100437 | 59 | 54 | 3.0 | 3.0 | 0.00 | 0.00 | 0.00 | 54 | 1099.4 |
| 20260505095933 | 59 | 90 | 1.0 | 3.0 | 0.00 | 0.00 | 0.00 | 54 | 1099.4 |
| 20260505095430 | 59 | 43 | 3.0 | 5.0 | 0.00 | 0.00 | 0.00 | 53 | 1099.5 |
| 20260505094926 | 59 | 131 | 1.0 | 3.0 | 0.00 | 0.00 | 0.00 | 54 | 1099.6 |
| 20260505094423 | 59 | 153 | 3.0 | 5.0 | 0.00 | 0.00 | 0.00 | 55 | 1099.4 |
| 20260505093919 | 59 | 60 | 2.0 | 3.0 | 0.00 | 0.00 | 0.00 | 54 | 1099.6 |
| 20260505093416 | 59 | 104 | 2.0 | 3.0 | 0.00 | 0.00 | 0.00 | 55 | 1099.9 |
| 20260505092913 | 59 | 131 | 2.0 | 3.0 | 0.00 | 0.00 | 0.00 | 55 | 1099.6 |
| 20260505092411 | 59 | 32 | 1.0 | 3.0 | 0.00 | 0.00 | 0.00 | 55 | 1099.6 |
| 20260505091908 | 59 | 137 | 3.0 | 5.0 | 0.00 | 0.00 | 0.00 | 54 | 1099.5 |
| 20260505091406 | 59 | 134 | 3.0 | 5.0 | 0.00 | 0.00 | 0.00 | 55 | 1099.7 |
| 20260505090904 | 59 | 49 | 2.0 | 5.0 | 0.00 | 0.00 | 0.00 | 56 | 1099.6 |
| 20260505090402 | 59 | 138 | 3.0 | 5.0 | 0.00 | 0.00 | 0.00 | 56 | 1099.7 |
| 20260505085859 | 59 | 120 | 1.0 | 5.0 | 0.00 | 0.00 | 0.00 | 55 | 1099.9 |
| 20260505085357 | 59 | 144 | 2.0 | 6.0 | 0.00 | 0.00 | 0.00 | 55 | 1099.7 |
| 20260505084855 | 59 | 140 | 5.0 | 6.0 | 0.00 | 0.00 | 0.00 | 55 | 1099.7 |
| 20260505084353 | 59 | 145 | 1.0 | 3.0 | 0.00 | 0.00 | 0.00 | 55 | 1099.7 |
| 20260505083850 | 60 | 142 | 4.0 | 6.0 | 0.00 | 0.00 | 0.00 | 55 | 1100.0 |
| 20260505083347 | 60 | 125 | 2.0 | 6.0 | 0.00 | 0.00 | 0.00 | 54 | 1100.0 |
| 20260505082844 | 60 | 139 | 4.0 | 5.0 | 0.00 | 0.00 | 0.00 | 54 | 1099.7 |
| 20260505082339 | 60 | 129 | 3.0 | 7.0 | 0.00 | 0.00 | 0.00 | 54 | 1100.0 |
| 20260505081836 | 60 | 136 | 4.0 | 6.0 | 0.00 | 0.00 | 0.00 | 54 | 1099.9 |
| 20260505081333 | 60 | 156 | 3.0 | 7.0 | 0.00 | 0.00 | 0.00 | 53 | 1099.7 |
| 20260505080830 | 60 | 130 | 4.0 | 6.0 | 0.00 | 0.00 | 0.00 | 53 | 1099.9 |
| 20260505080326 | 60 | 133 | 4.0 | 10.0 | 0.00 | 0.00 | 0.00 | 53 | 1099.9 |
| 20260505075821 | 60 | 135 | 5.0 | 8.0 | 0.00 | 0.00 | 0.00 | 53 | 1099.9 |
| 20260505075319 | 60 | 160 | 4.0 | 10.0 | 0.00 | 0.00 | 0.00 | 53 | 1099.9 |
| 20260505074816 | 60 | 134 | 4.0 | 8.0 | 0.00 | 0.00 | 0.00 | 53 | 1099.9 |
| 20260505074313 | 60 | 131 | 3.0 | 8.0 | 0.00 | 0.00 | 0.00 | 54 | 1100.1 |
| 20260505073810 | 60 | 145 | 4.0 | 8.0 | 0.00 | 0.00 | 0.00 | 54 | 1100.0 |
| 20260505073308 | 60 | 133 | 5.0 | 8.0 | 0.00 | 0.00 | 0.00 | 54 | 1099.7 |
| 20260505072805 | 60 | 141 | 3.0 | 7.0 | 0.00 | 0.00 | 0.00 | 54 | 1099.9 |
| 20260505072301 | 60 | 135 | 4.0 | 6.0 | 0.00 | 0.00 | 0.00 | 54 | 1099.7 |
| 20260505071756 | 60 | 134 | 4.0 | 6.0 | 0.00 | 0.00 | 0.00 | 54 | 1099.9 |
| 20260505071253 | 60 | 136 | 5.0 | 6.0 | 0.00 | 0.00 | 0.00 | 54 | 1100.0 |
| 20260505070751 | 60 | 133 | 4.0 | 6.0 | 0.00 | 0.00 | 0.00 | 54 | 1099.9 |
| 20260505070247 | 60 | 143 | 5.0 | 8.0 | 0.00 | 0.00 | 0.00 | 54 | 1099.9 |
| 20260505065743 | 60 | 132 | 4.0 | 7.0 | 0.00 | 0.00 | 0.00 | 54 | 1099.9 |
| 20260505065240 | 60 | 138 | 3.0 | 6.0 | 0.00 | 0.00 | 0.00 | 54 | 1100.0 |
| 20260505064737 | 60 | 134 | 5.0 | 7.0 | 0.00 | 0.00 | 0.00 | 54 | 1100.0 |
| 20260505064235 | 60 | 135 | 5.0 | 6.0 | 0.00 | 0.00 | 0.00 | 54 | 1100.0 |
| 20260505063732 | 60 | 134 | 4.0 | 7.0 | 0.00 | 0.00 | 0.00 | 54 | 1100.0 |
| 20260505063228 | 60 | 135 | 5.0 | 8.0 | 0.00 | 0.00 | 0.00 | 54 | 1099.9 |
| 20260505062725 | 60 | 145 | 6.0 | 8.0 | 0.00 | 0.00 | 0.00 | 53 | 1100.1 |
| 20260505062223 | 61 | 132 | 3.0 | 6.0 | 0.00 | 0.00 | 0.00 | 54 | 1100.0 |
| 20260505061719 | 61 | 133 | 4.0 | 6.0 | 0.00 | 0.00 | 0.00 | 53 | 1100.0 |
| 20260505061217 | 61 | 142 | 6.0 | 8.0 | 0.00 | 0.00 | 0.00 | 53 | 1100.2 |
| 20260505060714 | 60 | 141 | 5.0 | 6.0 | 0.00 | 0.00 | 0.00 | 53 | 1100.1 |
| 20260505060211 | 61 | 139 | 3.0 | 6.0 | 0.00 | 0.00 | 0.00 | 53 | 1100.0 |
| 20260505055706 | 61 | 122 | 3.0 | 6.0 | 0.00 | 0.00 | 0.00 | 53 | 1100.3 |
| 20260505055203 | 61 | 132 | 4.0 | 7.0 | 0.00 | 0.00 | 0.00 | 52 | 1100.1 |
| 20260505054700 | 60 | 133 | 1.0 | 3.0 | 0.00 | 0.00 | 0.00 | 54 | 1100.2 |
| 20260505054158 | 61 | 50 | 2.0 | 3.0 | 0.00 | 0.00 | 0.00 | 54 | 1100.3 |
| 20260505053656 | 61 | 135 | 5.0 | 7.0 | 0.00 | 0.00 | 0.00 | 53 | 1100.2 |
| 20260505053152 | 61 | 134 | 5.0 | 8.0 | 0.00 | 0.00 | 0.00 | 52 | 1100.4 |
| 20260505052649 | 61 | 140 | 5.0 | 8.0 | 0.00 | 0.00 | 0.00 | 52 | 1100.3 |
| 20260505052146 | 61 | 142 | 5.0 | 8.0 | 0.00 | 0.00 | 0.00 | 52 | 1100.4 |
| 20260505051643 | 61 | 119 | 4.0 | 7.0 | 0.00 | 0.00 | 0.00 | 52 | 1100.3 |
| 20260505051142 | 62 | 132 | 3.0 | 7.0 | 0.00 | 0.00 | 0.00 | 52 | 1100.3 |
| 20260505050639 | 62 | 133 | 4.0 | 8.0 | 0.00 | 0.00 | 0.00 | 52 | 1100.2 |
| 20260505050137 | 62 | 142 | 5.0 | 8.0 | 0.00 | 0.00 | 0.00 | 53 | 1100.2 |
| 20260505041607 | 62 | 134 | 5.0 | 7.0 | 0.00 | 0.00 | 0.00 | 51 | 1100.2 |
| 20260505041104 | 62 | 130 | 5.0 | 6.0 | 0.00 | 0.00 | 0.00 | 51 | 1100.2 |
| 20260505040601 | 62 | 148 | 4.0 | 6.0 | 0.00 | 0.00 | 0.00 | 51 | 1100.0 |
| 20260505040058 | 62 | 130 | 1.0 | 5.0 | 0.00 | 0.00 | 0.00 | 51 | 1100.2 |
| 20260505035555 | 62 | 109 | 2.0 | 3.0 | 0.00 | 0.00 | 0.00 | 51 | 1100.2 |
| 20260505035051 | 62 | 101 | 2.0 | 5.0 | 0.00 | 0.00 | 0.00 | 51 | 1100.3 |
| 20260505034548 | 62 | 126 | 4.0 | 8.0 | 0.00 | 0.00 | 0.00 | 50 | 1100.3 |
| 20260505034044 | 62 | 137 | 4.0 | 6.0 | 0.00 | 0.00 | 0.00 | 50 | 1100.3 |
| 20260505033542 | 62 | 120 | 5.0 | 6.0 | 0.00 | 0.00 | 0.00 | 50 | 1100.3 |
| 20260505033040 | 62 | 130 | 4.0 | 7.0 | 0.00 | 0.00 | 0.00 | 51 | 1100.1 |
| 20260505032537 | 62 | 136 | 6.0 | 7.0 | 0.00 | 0.00 | 0.00 | 51 | 1100.1 |
| 20260505032033 | 62 | 124 | 3.0 | 7.0 | 0.00 | 0.00 | 0.00 | 51 | 1100.4 |
| 20260505031531 | 62 | 131 | 4.0 | 7.0 | 0.00 | 0.00 | 0.00 | 51 | 1100.3 |
| 20260505031027 | 62 | 133 | 4.0 | 5.0 | 0.00 | 0.00 | 0.00 | 51 | 1100.2 |
| 20260505030524 | 62 | 132 | 3.0 | 6.0 | 0.00 | 0.00 | 0.00 | 51 | 1100.2 |
| 20260505030020 | 63 | 133 | 5.0 | 6.0 | 0.00 | 0.00 | 0.00 | 51 | 1100.5 |
| 20260505025516 | 63 | 144 | 5.0 | 7.0 | 0.00 | 0.00 | 0.00 | 52 | 1100.4 |
| 20260505025016 | 62 | 139 | 3.0 | 7.0 | 0.00 | 0.00 | 0.00 | 53 | 1100.4 |
| 20260505024512 | 63 | 140 | 3.0 | 6.0 | 0.00 | 0.00 | 0.00 | 54 | 1100.4 |
| 20260505024009 | 63 | 139 | 4.0 | 6.0 | 0.00 | 0.00 | 0.00 | 54 | 1100.4 |
| 20260505023506 | 63 | 154 | 5.0 | 6.0 | 0.00 | 0.00 | 0.00 | 54 | 1100.5 |
| 20260505023004 | 63 | 132 | 3.0 | 5.0 | 0.00 | 0.00 | 0.00 | 54 | 1100.4 |
| 20260505022501 | 63 | 136 | 2.0 | 6.0 | 0.00 | 0.00 | 0.00 | 55 | 1100.3 |
| 20260505021958 | 63 | 136 | 3.0 | 5.0 | 0.00 | 0.00 | 0.00 | 55 | 1100.1 |
| 20260505021454 | 64 | 128 | 3.0 | 6.0 | 0.00 | 0.00 | 0.00 | 54 | 1100.2 |
| 20260505020950 | 64 | 135 | 3.0 | 6.0 | 0.00 | 0.00 | 0.00 | 55 | 1100.1 |
| 20260505020445 | 64 | 140 | 3.0 | 5.0 | 0.00 | 0.00 | 0.00 | 55 | 1100.1 |
| 20260505015943 | 64 | 134 | 3.0 | 6.0 | 0.00 | 0.00 | 0.00 | 55 | 1100.2 |
| 20260505015440 | 64 | 138 | 3.0 | 6.0 | 0.00 | 0.00 | 0.00 | 55 | 1100.1 |
| 20260505014937 | 64 | 141 | 2.0 | 3.0 | 0.00 | 0.00 | 0.00 | 56 | 1100.0 |
| 20260505014433 | 64 | 132 | 3.0 | 5.0 | 0.00 | 0.00 | 0.00 | 55 | 1100.0 |
| 20260505013931 | 64 | 139 | 2.0 | 3.0 | 0.00 | 0.00 | 0.00 | 56 | 1099.9 |
| 20260505013428 | 64 | 123 | 1.0 | 3.0 | 0.00 | 0.00 | 0.00 | 56 | 1100.0 |
| 20260505012926 | 64 | 128 | 1.0 | 3.0 | 0.00 | 0.00 | 0.00 | 55 | 1099.7 |
| 20260505012423 | 64 | 141 | 2.0 | 2.0 | 0.00 | 0.00 | 0.00 | 56 | 1100.0 |
| 20260505011919 | 64 | 46 | 1.0 | 2.0 | 0.00 | 0.00 | 0.00 | 56 | 1099.7 |
| 20260505011416 | 64 | 56 | 2.0 | 2.0 | 0.00 | 0.00 | 0.00 | 56 | 1099.9 |
| 20260505010913 | 64 | 48 | 2.0 | 2.0 | 0.00 | 0.00 | 0.00 | 55 | 1099.7 |
| 20260505010408 | 64 | 55 | 2.0 | 3.0 | 0.00 | 0.00 | 0.00 | 55 | 1099.7 |
| 20260505005904 | 64 | 57 | 2.0 | 2.0 | 0.00 | 0.00 | 0.00 | 55 | 1099.5 |
| 20260505005401 | 65 | 69 | 1.0 | 2.0 | 0.00 | 0.00 | 0.00 | 55 | 1099.5 |
| 20260505004859 | 65 | 103 | 0.0 | 1.0 | 0.00 | 0.00 | 0.00 | 54 | 1099.6 |
| 20260505004355 | 65 | 120 | 1.0 | 2.0 | 0.00 | 0.00 | 0.00 | 54 | 1099.6 |
| 20260505003853 | 66 | 136 | 2.0 | 3.0 | 0.00 | 0.00 | 0.00 | 52 | 1099.6 |
| 20260505003350 | 66 | 129 | 2.0 | 2.0 | 0.00 | 0.00 | 0.00 | 52 | 1099.5 |
| 20260505002845 | 66 | 117 | 1.0 | 1.0 | 0.00 | 0.00 | 0.00 | 52 | 1099.5 |
| 20260505002342 | 66 | 117 | 0.0 | 2.0 | 0.00 | 0.00 | 0.00 | 51 | 1099.4 |
| 20260505001841 | 67 | 135 | 0.0 | 1.0 | 0.00 | 0.00 | 0.00 | 51 | 1099.4 |
| 20260505001337 | 68 | 142 | 1.0 | 1.0 | 0.00 | 0.00 | 0.00 | 49 | 1099.4 |
| 20260505000835 | 68 | 143 | 2.0 | 2.0 | 0.00 | 0.00 | 0.00 | 49 | 1099.3 |
| 20260505000333 | 68 | 146 | 1.0 | 3.0 | 0.00 | 0.00 | 0.00 | 49 | 1099.5 |
| 20260504235829 | 68 | 141 | 1.0 | 3.0 | 0.00 | 0.00 | 0.00 | 48 | 1099.4 |
| 20260504235326 | 68 | 143 | 1.0 | 2.0 | 0.00 | 0.00 | 0.00 | 49 | 1099.5 |
| 20260504234823 | 69 | 144 | 1.0 | 2.0 | 0.00 | 0.00 | 0.00 | 49 | 1099.6 |
| 20260504234320 | 69 | 140 | 0.0 | 3.0 | 0.00 | 0.00 | 0.00 | 48 | 1099.4 |
| 20260504233817 | 70 | 158 | 1.0 | 3.0 | 0.00 | 0.00 | 0.00 | 47 | 1099.5 |
| 20260504233313 | 71 | 139 | 0.0 | 3.0 | 0.00 | 0.00 | 0.00 | 47 | 1099.5 |
| 20260504232809 | 70 | 152 | 3.0 | 6.0 | 0.00 | 0.00 | 0.00 | 46 | 1099.5 |
| 20260504232307 | 70 | 143 | 3.0 | 5.0 | 0.00 | 0.00 | 0.00 | 49 | 1099.5 |
| 20260504231804 | 70 | 111 | 2.0 | 5.0 | 0.00 | 0.00 | 0.00 | 49 | 1099.6 |
| 20260504231300 | 70 | 153 | 5.0 | 8.0 | 0.00 | 0.00 | 0.00 | 48 | 1099.6 |
| 20260504230755 | 69 | 156 | 4.0 | 5.0 | 0.00 | 0.00 | 0.00 | 49 | 1099.5 |
| 20260504230254 | 69 | 128 | 4.0 | 8.0 | 0.00 | 0.00 | 0.00 | 49 | 1099.3 |
| 20260504225753 | 69 | 124 | 6.0 | 7.0 | 0.00 | 0.00 | 0.00 | 49 | 1099.5 |
| 20260504225249 | 69 | 153 | 8.0 | 9.0 | 0.00 | 0.00 | 0.00 | 49 | 1099.4 |
| 20260504224746 | 69 | 156 | 3.0 | 8.0 | 0.00 | 0.00 | 0.00 | 49 | 1099.5 |
| 20260504224243 | 69 | 143 | 5.0 | 8.0 | 0.00 | 0.00 | 0.00 | 48 | 1099.6 |
| 20260504223739 | 69 | 153 | 4.0 | 7.0 | 0.00 | 0.00 | 0.00 | 49 | 1099.4 |
| 20260504223235 | 70 | 115 | 4.0 | 8.0 | 0.00 | 0.00 | 0.00 | 49 | 1099.5 |
| 20260504222732 | 70 | 116 | 4.0 | 5.0 | 0.00 | 0.00 | 0.00 | 47 | 1099.6 |
| 20260504222229 | 70 | 177 | 1.0 | 6.0 | 0.00 | 0.00 | 0.00 | 47 | 1099.5 |
| 20260504221726 | 71 | 164 | 4.0 | 9.0 | 0.00 | 0.00 | 0.00 | 46 | 1099.7 |
| 20260504221223 | 71 | 139 | 3.0 | 9.0 | 0.00 | 0.00 | 0.00 | 45 | 1099.6 |
| 20260504220720 | 71 | 150 | 5.0 | 8.0 | 0.00 | 0.00 | 0.00 | 45 | 1099.6 |
| 20260504220217 | 71 | 168 | 3.0 | 7.0 | 0.00 | 0.00 | 0.00 | 44 | 1099.6 |
| 20260504215714 | 71 | 147 | 1.0 | 10.0 | 0.00 | 0.00 | 0.00 | 43 | 1099.6 |
| 20260504215211 | 71 | 267 | 3.0 | 5.0 | 0.00 | 0.00 | 0.00 | 44 | 1099.7 |
| 20260504214707 | 71 | 174 | 3.0 | 7.0 | 0.00 | 0.00 | 0.00 | 42 | 1099.6 |
| 20260504214203 | 71 | 165 | 7.0 | 9.0 | 0.00 | 0.00 | 0.00 | 43 | 1099.6 |
| 20260504213700 | 71 | 241 | 2.0 | 5.0 | 0.00 | 0.00 | 0.00 | 43 | 1099.4 |
| 20260504213157 | 72 | 138 | 3.0 | 8.0 | 0.00 | 0.00 | 0.00 | 40 | 1099.5 |
| 20260504212654 | 72 | 138 | 1.0 | 3.0 | 0.00 | 0.00 | 0.00 | 42 | 1099.5 |
| 20260504212150 | 72 | 173 | 3.0 | 8.0 | 0.00 | 0.00 | 0.00 | 39 | 1099.5 |
| 20260504211648 | 72 | 149 | 5.0 | 9.0 | 0.00 | 0.00 | 0.00 | 39 | 1099.4 |